createdAt,value
2022-12-25T00:00:46.730Z,8.70
2022-12-25T00:03:15.283Z,8.70
2022-12-25T00:05:43.618Z,8.77
2022-12-25T00:08:12.269Z,8.53
2022-12-25T00:10:45.375Z,8.50
2022-12-25T00:13:14.109Z,8.83
2022-12-25T00:15:42.809Z,8.33
2022-12-25T00:18:11.355Z,8.50
2022-12-25T00:20:39.830Z,7.97
2022-12-25T00:23:08.404Z,8.33
2022-12-25T00:25:42.160Z,8.90
2022-12-25T00:28:10.793Z,10.30
2022-12-25T00:30:41.171Z,11.80
2022-12-25T00:33:09.673Z,11.43
2022-12-25T00:35:38.248Z,9.67
2022-12-25T00:38:06.588Z,9.03
2022-12-25T00:40:35.017Z,8.73
2022-12-25T00:43:04.675Z,8.33
2022-12-25T00:45:33.154Z,8.47
2022-12-25T00:48:01.504Z,8.33
2022-12-25T00:50:29.744Z,8.43
2022-12-25T00:52:58.063Z,8.30
2022-12-25T00:55:26.389Z,8.03
2022-12-25T00:57:54.783Z,9.10
2022-12-25T01:00:24.791Z,9.47
2022-12-25T01:02:53.093Z,8.90
2022-12-25T01:05:21.534Z,8.63
2022-12-25T01:07:49.844Z,9.53
2022-12-25T01:10:23.365Z,9.17
2022-12-25T01:12:52.900Z,9.40
2022-12-25T01:15:21.511Z,9.10
2022-12-25T01:17:51.192Z,9.23
2022-12-25T01:20:20.035Z,9.23
2022-12-25T01:22:48.526Z,9.40
2022-12-25T01:25:17.460Z,9.30
2022-12-25T01:27:45.771Z,9.07
2022-12-25T01:30:14.570Z,9.17
2022-12-25T01:32:43.211Z,9.33
2022-12-25T01:35:13.239Z,9.07
2022-12-25T01:37:41.575Z,9.33
2022-12-25T01:40:10.876Z,9.27
2022-12-25T01:42:39.440Z,8.53
2022-12-25T01:45:33.489Z,9.10
2022-12-25T01:48:04.313Z,8.27
2022-12-25T01:50:35.367Z,8.40
2022-12-25T01:53:04.345Z,8.93
2022-12-25T01:55:34.309Z,9.20
2022-12-25T01:58:02.696Z,9.30
2022-12-25T02:00:31.038Z,8.90
2022-12-25T02:03:00.258Z,8.60
2022-12-25T02:05:30.518Z,8.67
2022-12-25T02:08:03.074Z,8.37
2022-12-25T02:10:31.511Z,8.13
2022-12-25T02:13:00.621Z,8.60
2022-12-25T02:15:36.457Z,8.40
2022-12-25T02:18:09.436Z,7.70
2022-12-25T02:21:00.612Z,8.17
2022-12-25T02:24:14.521Z,8.03
2022-12-25T02:26:56.681Z,8.50
2022-12-25T02:29:31.826Z,9.27
2022-12-25T02:32:06.390Z,8.77
2022-12-25T02:34:42.719Z,8.93
2022-12-25T02:37:17.787Z,8.60
2022-12-25T02:39:59.795Z,9.30
2022-12-25T02:43:00.482Z,10.10
2022-12-25T02:45:51.868Z,9.40
2022-12-25T02:48:40.655Z,9.23
2022-12-25T02:51:29.884Z,9.70
2022-12-25T02:54:17.907Z,9.77
2022-12-25T02:57:06.207Z,10.07
2022-12-25T02:59:56.760Z,9.93
2022-12-25T03:03:01.337Z,9.67
2022-12-25T03:05:48.451Z,9.87
2022-12-25T03:08:22.606Z,10.13
2022-12-25T03:11:13.135Z,10.13
2022-12-25T03:13:44.597Z,10.13
2022-12-25T03:16:26.773Z,10.70
2022-12-25T03:18:58.219Z,9.40
2022-12-25T03:21:44.081Z,9.67
2022-12-25T03:24:29.466Z,9.43
2022-12-25T03:26:59.283Z,9.47
2022-12-25T03:29:49.299Z,10.13
2022-12-25T03:32:27.692Z,9.97
2022-12-25T03:35:23.685Z,9.27
2022-12-25T03:38:21.917Z,9.50
2022-12-25T03:41:19.464Z,9.70
2022-12-25T03:44:11.737Z,10.60
2022-12-25T03:47:06.452Z,9.80
2022-12-25T03:50:00.689Z,9.87
2022-12-25T03:52:50.005Z,10.17
2022-12-25T03:55:37.657Z,9.93
2022-12-25T03:58:23.461Z,9.67
2022-12-25T04:01:09.257Z,9.40
2022-12-25T04:03:55.172Z,10.07
2022-12-25T04:06:40.656Z,9.57
2022-12-25T04:09:27.928Z,9.50
2022-12-25T04:12:13.665Z,9.53
2022-12-25T04:14:59.398Z,9.60
2022-12-25T04:17:45.153Z,9.43
2022-12-25T04:20:31.175Z,9.00
2022-12-25T04:23:17.205Z,9.47
2022-12-25T04:26:04.487Z,8.40
2022-12-25T04:28:50.071Z,7.60
2022-12-25T04:31:35.799Z,9.27
2022-12-25T04:34:21.347Z,8.20
2022-12-25T04:36:49.629Z,8.03
2022-12-25T04:39:18.015Z,7.47
2022-12-25T04:41:47.624Z,6.60
2022-12-25T04:44:15.933Z,7.20
2022-12-25T04:46:44.241Z,6.40
2022-12-25T04:49:12.774Z,6.50
2022-12-25T04:51:41.368Z,6.07
2022-12-25T04:54:09.967Z,5.73
2022-12-25T04:56:45.382Z,5.50
2022-12-25T04:59:15.905Z,5.23
2022-12-25T05:01:44.612Z,5.30
2022-12-25T05:04:13.220Z,5.60
2022-12-25T05:06:41.779Z,5.57
2022-12-25T05:09:11.067Z,5.57
2022-12-25T05:11:39.689Z,5.80
2022-12-25T05:14:08.296Z,6.07
2022-12-25T05:16:38.540Z,5.57
2022-12-25T05:19:07.140Z,5.53
2022-12-25T05:21:36.116Z,5.77
2022-12-25T05:24:04.465Z,5.40
2022-12-25T05:26:33.023Z,5.30
2022-12-25T05:29:01.304Z,6.43
2022-12-25T05:31:29.744Z,7.07
2022-12-25T05:33:59.485Z,7.17
2022-12-25T05:36:28.438Z,7.13
2022-12-25T05:38:57.120Z,7.50
2022-12-25T05:41:30.617Z,8.33
2022-12-25T05:44:02.223Z,8.30
2022-12-25T05:46:30.661Z,10.73
2022-12-25T05:49:00.800Z,13.73
2022-12-25T05:51:30.935Z,15.57
2022-12-25T05:53:59.238Z,15.57
2022-12-25T05:56:27.580Z,17.07
2022-12-25T05:58:56.328Z,17.87
2022-12-25T06:01:26.879Z,21.67
2022-12-25T06:03:55.535Z,22.27
2022-12-25T06:06:25.333Z,21.93
2022-12-25T06:08:55.840Z,21.70
2022-12-25T06:11:24.110Z,21.60
2022-12-25T06:13:52.857Z,22.93
2022-12-25T06:16:21.681Z,24.30
2022-12-25T06:18:52.116Z,24.33
2022-12-25T06:21:20.494Z,24.30
2022-12-25T06:23:50.617Z,24.60
2022-12-25T06:26:20.769Z,25.70
2022-12-25T06:28:49.186Z,25.40
2022-12-25T06:31:19.741Z,25.00
2022-12-25T06:33:48.225Z,25.27
2022-12-25T06:36:17.943Z,25.10
2022-12-25T06:38:46.750Z,23.97
2022-12-25T06:41:18.973Z,23.43
2022-12-25T06:43:50.319Z,22.27
2022-12-25T06:46:19.863Z,23.00
2022-12-25T06:48:49.843Z,22.53
2022-12-25T06:51:19.427Z,20.13
2022-12-25T06:53:48.578Z,17.33
2022-12-25T06:56:19.919Z,17.50
2022-12-25T06:58:50.124Z,17.80
2022-12-25T07:01:22.207Z,17.40
2022-12-25T07:03:52.969Z,16.07
2022-12-25T07:06:21.216Z,16.03
2022-12-25T07:08:49.593Z,16.53
2022-12-25T07:11:19.507Z,16.23
2022-12-25T07:13:47.777Z,16.87
2022-12-25T07:16:16.706Z,16.60
2022-12-25T07:18:44.961Z,16.97
2022-12-25T07:21:15.003Z,15.60
2022-12-25T07:23:44.534Z,16.23
2022-12-25T07:26:14.176Z,15.80
2022-12-25T07:28:44.190Z,17.10
2022-12-25T07:31:14.139Z,17.10
2022-12-25T07:33:43.118Z,16.77
2022-12-25T07:36:13.063Z,17.37
2022-12-25T07:38:42.051Z,17.37
2022-12-25T07:41:11.266Z,18.63
2022-12-25T07:43:39.613Z,19.07
2022-12-25T07:46:09.629Z,20.77
2022-12-25T07:48:38.569Z,22.67
2022-12-25T07:51:08.890Z,21.73
2022-12-25T07:53:38.045Z,22.67
2022-12-25T07:56:08.641Z,22.83
2022-12-25T07:58:37.054Z,24.17
2022-12-25T08:01:08.993Z,23.30
2022-12-25T08:03:37.710Z,21.73
2022-12-25T08:06:08.145Z,22.73
2022-12-25T08:08:36.792Z,24.00
2022-12-25T08:11:07.668Z,25.17
2022-12-25T08:13:36.410Z,26.27
2022-12-25T08:16:07.980Z,29.13
2022-12-25T08:18:38.411Z,28.83
2022-12-25T08:21:08.355Z,28.27
2022-12-25T08:23:38.304Z,27.23
2022-12-25T08:26:08.459Z,25.63
2022-12-25T08:28:37.299Z,26.23
2022-12-25T08:31:11.633Z,24.17
2022-12-25T08:33:41.401Z,22.57
2022-12-25T08:36:11.938Z,22.13
2022-12-25T08:38:40.968Z,22.20
2022-12-25T08:41:09.855Z,20.57
2022-12-25T08:43:38.153Z,20.20
2022-12-25T08:46:07.295Z,18.93
2022-12-25T08:48:36.040Z,18.80
2022-12-25T08:51:09.489Z,19.23
2022-12-25T08:53:37.780Z,18.47
2022-12-25T08:56:06.482Z,20.10
2022-12-25T08:58:35.026Z,21.60
2022-12-25T09:01:03.446Z,22.77
2022-12-25T09:03:33.451Z,23.67
2022-12-25T09:06:06.530Z,25.90
2022-12-25T09:08:35.670Z,25.77
2022-12-25T09:11:04.623Z,26.93
2022-12-25T09:13:33.283Z,26.30
2022-12-25T09:16:01.703Z,27.20
2022-12-25T09:18:30.016Z,26.80
2022-12-25T09:21:02.452Z,27.10
2022-12-25T09:23:32.900Z,28.17
2022-12-25T09:26:02.379Z,28.27
2022-12-25T09:28:30.655Z,28.17
2022-12-25T09:30:58.972Z,27.27
2022-12-25T09:33:27.273Z,27.30
2022-12-25T09:35:56.450Z,27.53
2022-12-25T09:38:25.355Z,26.57
2022-12-25T09:41:02.785Z,27.30
2022-12-25T09:43:34.686Z,26.97
2022-12-25T09:46:05.515Z,27.77
2022-12-25T09:48:36.863Z,27.73
2022-12-25T09:51:10.866Z,30.10
2022-12-25T09:53:41.843Z,30.13
2022-12-25T09:56:15.052Z,31.93
2022-12-25T09:58:43.571Z,33.37
2022-12-25T10:01:20.001Z,34.77
2022-12-25T10:04:24.984Z,37.00
2022-12-25T10:07:04.984Z,39.07
2022-12-25T10:09:48.345Z,36.40
2022-12-25T10:12:29.356Z,32.13
2022-12-25T10:15:09.094Z,26.93
2022-12-25T10:17:50.642Z,24.57
2022-12-25T10:20:25.398Z,20.67
2022-12-25T10:22:58.310Z,18.80
2022-12-25T10:25:27.013Z,20.80
2022-12-25T10:28:01.974Z,23.50
2022-12-25T10:30:31.539Z,24.20
2022-12-25T10:33:00.225Z,23.80
2022-12-25T10:35:31.556Z,25.20
2022-12-25T10:38:02.757Z,25.53
2022-12-25T10:40:38.325Z,24.70
2022-12-25T10:43:14.151Z,26.60
2022-12-25T10:45:47.764Z,25.40
2022-12-25T10:48:22.115Z,23.77
2022-12-25T10:50:50.498Z,24.97
2022-12-25T10:53:21.728Z,23.47
2022-12-25T10:56:01.717Z,23.63
2022-12-25T10:58:32.566Z,23.17
2022-12-25T11:01:03.282Z,21.10
2022-12-25T11:03:34.207Z,19.50
2022-12-25T11:06:03.286Z,20.23
2022-12-25T11:08:33.609Z,21.23
2022-12-25T11:11:06.436Z,20.63
2022-12-25T11:13:40.426Z,20.20
2022-12-25T11:16:11.094Z,23.07
2022-12-25T11:18:47.425Z,21.90
2022-12-25T11:21:18.519Z,23.77
2022-12-25T11:23:48.742Z,21.27
2022-12-25T11:26:18.425Z,22.53
2022-12-25T11:28:52.436Z,21.77
2022-12-25T11:31:23.016Z,21.27
2022-12-25T11:33:56.393Z,21.23
2022-12-25T11:36:33.995Z,20.53
2022-12-25T11:39:09.116Z,20.30
2022-12-25T11:41:41.613Z,19.63
2022-12-25T11:44:27.709Z,20.93
2022-12-25T11:46:57.743Z,21.67
2022-12-25T11:49:26.336Z,22.30
2022-12-25T11:51:58.307Z,21.43
2022-12-25T11:54:31.559Z,20.17
2022-12-25T11:57:03.985Z,20.40
2022-12-25T11:59:37.092Z,19.33
2022-12-25T12:02:21.885Z,18.63
2022-12-25T12:05:05.717Z,19.33
2022-12-25T12:07:35.515Z,20.93
2022-12-25T12:10:13.069Z,21.87
2022-12-25T12:12:49.183Z,22.80
2022-12-25T12:15:29.703Z,19.70
2022-12-25T12:18:09.618Z,18.83
2022-12-25T12:20:38.780Z,18.93
2022-12-25T12:23:16.330Z,18.70
2022-12-25T12:25:46.722Z,18.57
2022-12-25T12:28:22.097Z,19.47
2022-12-25T12:31:01.120Z,20.50
2022-12-25T12:33:34.126Z,21.07
2022-12-25T12:36:04.540Z,23.60
2022-12-25T12:38:34.681Z,21.77
2022-12-25T12:41:05.079Z,18.57
2022-12-25T12:43:37.516Z,17.40
2022-12-25T12:46:15.625Z,18.17
2022-12-25T12:48:46.837Z,18.97
2022-12-25T12:51:28.385Z,17.60
2022-12-25T12:54:20.630Z,16.57
2022-12-25T12:57:02.578Z,17.23
2022-12-25T12:59:39.603Z,18.23
2022-12-25T13:02:39.989Z,18.07
2022-12-25T13:05:20.126Z,19.20
2022-12-25T13:07:58.345Z,17.93
2022-12-25T13:10:32.822Z,17.40
2022-12-25T13:13:04.268Z,18.13
2022-12-25T13:15:35.964Z,17.10
2022-12-25T13:18:11.208Z,17.00
2022-12-25T13:20:45.833Z,17.40
2022-12-25T13:23:27.144Z,19.10
2022-12-25T13:25:56.349Z,17.60
2022-12-25T13:28:29.473Z,17.63
2022-12-25T13:31:04.865Z,17.60
2022-12-25T13:33:34.859Z,18.27
2022-12-25T13:36:04.327Z,17.73
2022-12-25T13:38:32.815Z,18.63
2022-12-25T13:41:17.777Z,18.20
2022-12-25T13:43:47.118Z,17.83
2022-12-25T13:46:16.172Z,17.67
2022-12-25T13:48:45.897Z,17.33
2022-12-25T13:51:17.229Z,18.20
2022-12-25T13:53:46.125Z,18.00
2022-12-25T13:56:17.189Z,17.67
2022-12-25T13:58:48.588Z,17.23
2022-12-25T14:01:18.777Z,18.57
2022-12-25T14:03:49.614Z,19.20
2022-12-25T14:06:21.111Z,18.73
2022-12-25T14:08:50.124Z,17.80
2022-12-25T14:11:21.685Z,17.90
2022-12-25T14:13:53.967Z,16.13
2022-12-25T14:16:23.198Z,17.87
2022-12-25T14:18:55.062Z,16.23
2022-12-25T14:21:28.717Z,16.30
2022-12-25T14:23:57.402Z,16.90
2022-12-25T14:26:28.802Z,16.23
2022-12-25T14:29:03.780Z,15.90
2022-12-25T14:31:33.853Z,16.03
2022-12-25T14:34:05.479Z,15.07
2022-12-25T14:36:35.608Z,15.23
2022-12-25T14:39:06.699Z,16.70
2022-12-25T14:41:38.517Z,18.47
2022-12-25T14:44:26.202Z,18.30
2022-12-25T14:47:05.422Z,20.93
2022-12-25T14:49:35.077Z,24.03
2022-12-25T14:52:10.991Z,23.17
2022-12-25T14:54:39.355Z,22.20
2022-12-25T14:57:07.708Z,23.47
2022-12-25T14:59:36.121Z,27.87
2022-12-25T15:02:04.626Z,29.20
2022-12-25T15:04:35.516Z,27.07
2022-12-25T15:07:07.477Z,26.87
2022-12-25T15:09:37.819Z,27.07
2022-12-25T15:12:06.634Z,28.40
2022-12-25T15:14:38.483Z,27.30
2022-12-25T15:17:06.820Z,26.70
2022-12-25T15:19:39.109Z,27.33
2022-12-25T15:22:07.856Z,28.70
2022-12-25T15:24:36.167Z,27.07
2022-12-25T15:27:05.476Z,29.53
2022-12-25T15:32:24.811Z,29.13
2022-12-25T15:34:54.440Z,29.60
2022-12-25T15:37:22.674Z,29.17
2022-12-25T15:39:51.021Z,29.27
2022-12-25T15:42:22.932Z,27.63
2022-12-25T15:44:51.613Z,27.23
2022-12-25T15:47:20.825Z,25.67
2022-12-25T15:49:49.146Z,28.03
2022-12-25T15:52:19.033Z,28.10
2022-12-25T15:54:47.371Z,27.63
2022-12-25T15:57:18.780Z,28.73
2022-12-25T15:59:47.154Z,28.00
2022-12-25T16:02:18.290Z,24.60
2022-12-25T16:04:46.913Z,26.43
2022-12-25T16:07:16.696Z,31.53
2022-12-25T16:09:46.748Z,32.67
2022-12-25T16:12:15.053Z,29.47
2022-12-25T16:14:43.809Z,25.73
2022-12-25T16:17:14.083Z,21.77
2022-12-25T16:19:44.730Z,19.30
2022-12-25T16:22:14.285Z,26.00
2022-12-25T16:24:42.572Z,34.37
2022-12-25T16:27:12.276Z,42.93
2022-12-25T16:29:42.039Z,47.20
2022-12-25T16:32:10.993Z,45.27
2022-12-25T16:34:40.602Z,47.07
2022-12-25T16:37:09.258Z,41.47
2022-12-25T16:39:38.732Z,36.40
2022-12-25T16:42:07.102Z,28.93
2022-12-25T16:44:38.856Z,25.70
2022-12-25T16:47:07.117Z,21.60
2022-12-25T16:49:35.680Z,20.50
2022-12-25T16:52:04.017Z,21.17
2022-12-25T16:54:32.336Z,22.47
2022-12-25T16:57:00.662Z,24.07
2022-12-25T16:59:29.767Z,26.33
2022-12-25T17:01:59.625Z,27.60
2022-12-25T17:04:29.563Z,22.80
2022-12-25T17:06:57.952Z,17.60
2022-12-25T17:09:26.265Z,14.17
2022-12-25T17:11:54.491Z,13.03
2022-12-25T17:14:22.925Z,14.80
2022-12-25T17:16:51.399Z,17.67
2022-12-25T17:19:23.785Z,22.77
2022-12-25T17:21:52.745Z,28.67
2022-12-25T17:24:21.021Z,48.73
2022-12-25T17:26:49.700Z,60.30
2022-12-25T17:29:22.096Z,46.50
2022-12-25T17:31:51.571Z,32.43
2022-12-25T17:34:21.402Z,23.53
2022-12-25T17:36:50.018Z,17.97
2022-12-25T17:39:19.268Z,15.10
2022-12-25T17:41:47.640Z,13.33
2022-12-25T17:44:15.942Z,13.07
2022-12-25T17:46:44.640Z,14.83
2022-12-25T17:49:17.559Z,13.17
2022-12-25T17:51:47.973Z,12.63
2022-12-25T17:54:16.481Z,16.37
2022-12-25T17:56:44.793Z,16.17
2022-12-25T17:59:18.682Z,17.63
2022-12-25T18:01:49.236Z,19.23
2022-12-25T18:04:17.754Z,19.97
2022-12-25T18:06:47.749Z,21.17
2022-12-25T18:09:16.005Z,18.90
2022-12-25T18:11:44.745Z,23.80
2022-12-25T18:14:16.175Z,33.80
2022-12-25T18:16:46.338Z,38.60
2022-12-25T18:19:17.745Z,37.13
2022-12-25T18:21:47.505Z,33.10
2022-12-25T18:24:15.834Z,29.53
2022-12-25T18:26:44.074Z,27.93
2022-12-25T18:29:12.430Z,28.00
2022-12-25T18:31:41.110Z,31.47
2022-12-25T18:34:09.381Z,33.03
2022-12-25T18:36:37.953Z,29.73
2022-12-25T18:39:07.718Z,26.50
2022-12-25T18:41:56.265Z,23.90
2022-12-25T18:44:24.538Z,19.27
2022-12-25T18:46:52.826Z,16.03
2022-12-25T18:49:21.196Z,14.53
2022-12-25T18:51:50.532Z,13.10
2022-12-25T18:54:20.206Z,16.30
2022-12-25T18:56:53.478Z,25.47
2022-12-25T18:59:22.032Z,28.13
2022-12-25T19:01:50.480Z,28.07
2022-12-25T19:04:18.841Z,32.73
2022-12-25T19:06:48.103Z,35.70
2022-12-25T19:09:16.480Z,36.43
2022-12-25T19:11:47.008Z,32.63
2022-12-25T19:14:15.680Z,26.93
2022-12-25T19:16:44.324Z,27.10
2022-12-25T19:19:13.264Z,27.17
2022-12-25T19:21:41.947Z,27.77
2022-12-25T19:24:10.522Z,29.27
2022-12-25T19:26:38.893Z,33.57
2022-12-25T19:29:08.579Z,44.13
2022-12-25T19:31:38.310Z,37.13
2022-12-25T19:34:06.812Z,28.70
2022-12-25T19:36:35.217Z,26.03
2022-12-25T19:39:03.908Z,27.77
2022-12-25T19:41:32.892Z,26.70
2022-12-25T19:44:01.725Z,23.63
2022-12-25T19:46:33.302Z,21.60
2022-12-25T19:49:04.459Z,20.47
2022-12-25T19:51:35.040Z,20.47
2022-12-25T19:54:04.187Z,19.23
2022-12-25T19:56:33.190Z,19.50
2022-12-25T19:59:02.126Z,19.33
2022-12-25T20:01:33.170Z,17.67
2022-12-25T20:04:01.853Z,16.50
2022-12-25T20:06:32.493Z,15.83
2022-12-25T20:09:02.560Z,14.67
2022-12-25T20:11:33.591Z,13.87
2022-12-25T20:14:01.958Z,14.00
2022-12-25T20:16:31.784Z,15.33
2022-12-25T20:19:00.615Z,17.10
2022-12-25T20:21:30.069Z,16.80
2022-12-25T20:23:58.657Z,13.90
2022-12-25T20:26:29.205Z,13.73
2022-12-25T20:28:57.915Z,11.93
2022-12-25T20:31:28.473Z,11.20
2022-12-25T20:33:59.976Z,11.63
2022-12-25T20:36:32.765Z,14.20
2022-12-25T20:39:05.148Z,12.37
2022-12-25T20:41:33.425Z,12.57
2022-12-25T20:44:02.054Z,12.23
2022-12-25T20:46:30.427Z,10.80
2022-12-25T20:49:00.228Z,11.10
2022-12-25T20:51:28.642Z,10.37
2022-12-25T20:53:57.317Z,10.77
2022-12-25T20:56:27.461Z,12.93
2022-12-25T20:58:56.422Z,17.53
2022-12-25T21:01:25.420Z,17.60
2022-12-25T21:03:53.891Z,19.10
2022-12-25T21:06:24.205Z,18.10
2022-12-25T21:08:52.497Z,17.87
2022-12-25T21:11:21.496Z,15.73
2022-12-25T21:13:50.841Z,14.83
2022-12-25T21:16:21.616Z,14.57
2022-12-25T21:18:51.151Z,14.43
2022-12-25T21:21:19.773Z,15.97
2022-12-25T21:23:49.506Z,15.93
2022-12-25T21:26:21.081Z,15.57
2022-12-25T21:28:50.700Z,15.90
2022-12-25T21:31:19.909Z,15.30
2022-12-25T21:33:54.487Z,15.20
2022-12-25T21:36:27.123Z,15.27
2022-12-25T21:38:59.013Z,16.37
2022-12-25T21:41:28.112Z,17.10
2022-12-25T21:43:56.975Z,16.77
2022-12-25T21:46:25.821Z,17.23
2022-12-25T21:48:54.761Z,15.83
2022-12-25T21:51:42.710Z,16.60
2022-12-25T21:54:13.621Z,16.87
2022-12-25T21:56:45.643Z,15.43
2022-12-25T21:59:15.912Z,16.43
2022-12-25T22:01:45.002Z,17.47
2022-12-25T22:04:15.122Z,16.83
2022-12-25T22:07:01.085Z,18.60
2022-12-25T22:09:31.312Z,17.83
2022-12-25T22:12:16.737Z,16.77
2022-12-25T22:14:56.737Z,14.37
2022-12-25T22:17:44.966Z,13.80
2022-12-25T22:20:15.625Z,13.53
2022-12-25T22:22:44.302Z,12.90
2022-12-25T22:25:14.636Z,13.03
2022-12-25T22:27:44.844Z,12.27
2022-12-25T22:30:15.816Z,12.40
2022-12-25T22:32:44.530Z,12.03
2022-12-25T22:35:13.307Z,11.90
2022-12-25T22:37:42.255Z,12.60
2022-12-25T22:40:14.373Z,11.87
2022-12-25T22:42:43.353Z,12.97
2022-12-25T22:45:13.304Z,13.13
2022-12-25T22:47:42.183Z,12.43
2022-12-25T22:50:11.432Z,13.03
2022-12-25T22:52:40.266Z,12.77
2022-12-25T22:55:10.721Z,12.23
2022-12-25T22:57:40.416Z,12.87
2022-12-25T23:00:09.933Z,13.10
2022-12-25T23:02:38.583Z,12.83
2022-12-25T23:05:08.439Z,12.17
2022-12-25T23:07:36.821Z,13.10
2022-12-25T23:10:06.712Z,12.93
2022-12-25T23:12:52.254Z,13.00
2022-12-25T23:15:22.028Z,14.80
2022-12-25T23:18:07.625Z,16.40
2022-12-25T23:20:54.761Z,16.73
2022-12-25T23:23:40.426Z,18.00
2022-12-25T23:26:09.061Z,18.27
2022-12-25T23:28:55.381Z,16.97
2022-12-25T23:31:30.028Z,16.93
2022-12-25T23:33:59.080Z,16.63
2022-12-25T23:36:27.553Z,16.80
2022-12-25T23:38:56.179Z,15.40
2022-12-25T23:41:24.623Z,15.13
2022-12-25T23:43:52.935Z,14.77
2022-12-25T23:46:21.582Z,14.23
2022-12-25T23:48:51.352Z,15.30
2022-12-25T23:51:19.602Z,14.73
2022-12-25T23:53:47.869Z,14.90
2022-12-25T23:56:16.170Z,15.30
2022-12-25T23:58:45.310Z,15.53
